Latest Weather Observations for Bushy Park

IDT60901

Issued at 7:01 pm EDT Friday 23 October 2020 (issued every 10 minutes, with the page automatically refreshed every 10 minutes)

About weather observations | Map of Hobart area stations | Latest observations for Hobart area | Other Formats
Station Details ID: 095003 Name: BUSHY PARK (BUSHY PARK ESTATES) Lat: -42.71 Lon: 146.90 Height: 27.0 m
Data from the previous 72 hours. | See also: Recent months at Bushy Park
Date/Time
EDT
Temp
°C
App
Temp
°C
Dew
Point
°C
Rel
Hum
%
Delta-T
°C
Wind Press
QNH
hPa
Press
MSL
hPa
Rain since
9am
mm
Dir  Spd
km/h
Gust
km/h
Spd
kts
Gust
kts
23/07:00pm 16.0 13.3 9.1 63 3.6 SW 13 17 7 9 - - 0.0
23/06:30pm 16.5 13.8 8.8 60 4.0 SW 13 17 7 9 - - 0.0
23/06:00pm 17.0 15.1 9.2 60 4.1 WSW 9 13 5 7 - - 0.0
23/05:30pm 17.6 15.3 7.6 52 5.1 NNW 9 13 5 7 - - 0.0
23/05:00pm 18.2 16.5 8.4 52 5.1 NNW 7 11 4 6 - - 0.0
23/04:30pm 17.9 15.9 8.5 54 4.8 NNW 9 11 5 6 - - 0.0
23/04:00pm 17.6 15.8 7.8 52 5.0 NNW 7 9 4 5 - - 0.0
23/03:30pm 17.9 16.3 8.2 53 5.0 WNW 6 11 3 6 - - 0.0
23/03:00pm 18.0 15.9 8.1 52 5.1 N 9 15 5 8 - - 0.0
23/02:30pm 17.5 15.3 7.9 53 4.9 NNE 9 13 5 7 - - 0.0
23/02:00pm 17.4 15.7 7.6 52 4.9 N 6 13 3 7 - - 0.0
23/01:30pm 17.4 14.9 8.3 55 4.7 N 11 17 6 9 - - 0.0
23/01:00pm 17.4 16.0 8.8 57 4.4 E 6 7 3 4 - - 0.0
23/12:30pm 16.0 15.4 8.8 62 3.7 SSE 2 7 1 4 - - 0.0
23/12:00pm 15.7 14.1 8.9 64 3.5 NW 7 11 4 6 - - 0.0
23/11:30am 15.0 13.4 8.8 66 3.2 N 7 13 4 7 - - 0.0
23/11:00am 14.4 12.1 8.9 69 2.8 N 11 15 6 8 - - 0.0
23/10:30am 13.3 11.8 9.0 75 2.2 N 7 11 4 6 - - 0.0
23/10:00am 12.9 11.0 9.0 77 2.0 NNE 9 11 5 6 - - 0.0
23/09:30am 12.4 10.6 9.3 81 1.6 N 9 11 5 6 - - 0.0
23/09:00am 11.5 9.9 8.7 83 1.4 N 7 9 4 5 - - 0.0
23/08:30am 10.7 10.4 8.7 87 1.0 CALM 0 0 0 0 - - 0.0
23/08:00am 10.5 9.0 8.5 87 1.0 N 6 7 3 4 - - 0.0
23/07:30am 9.7 8.9 8.1 90 0.8 WSW 2 7 1 4 - - 0.0
23/07:00am 8.6 7.1 8.4 99 0.1 SW 6 9 3 5 - - 0.0
23/06:30am 7.5 6.3 6.6 94 0.4 N 2 7 1 4 - - 0.0
23/06:00am 7.2 5.0 6.3 94 0.4 WSW 7 11 4 6 - - 0.0
23/05:30am 7.4 5.5 6.8 96 0.3 SSW 6 9 3 5 - - 0.0
23/05:00am 8.3 7.7 7.5 95 0.4 CALM 0 0 0 0 - - 0.0
23/04:30am 9.4 9.1 8.6 95 0.4 CALM 0 0 0 0 - - 0.0
23/04:00am 10.3 10.1 9.1 92 0.6 CALM 0 0 0 0 - - 0.0
23/03:30am 10.1 9.8 8.7 91 0.7 CALM 0 0 0 0 - - 0.0
23/03:00am 10.5 10.3 8.9 90 0.8 CALM 0 0 0 0 - - 0.0
23/02:30am 11.3 11.1 9.1 86 1.1 CALM 0 0 0 0 - - 0.0
23/02:00am 11.9 11.8 9.3 84 1.3 CALM 0 0 0 0 - - 0.0
23/01:30am 12.0 11.8 9.2 83 1.4 CALM 0 0 0 0 - - 0.0
23/01:00am 12.0 10.5 9.0 82 1.5 SSE 7 9 4 5 - - 0.0
23/12:30am 12.1 9.4 8.9 81 1.6 SSE 13 15 7 8 - - 0.0
23/12:00am 12.2 9.4 8.6 78 1.8 SSE 13 19 7 10 - - 0.0
 
Date/Time
EDT
Temp
°C
App
Temp
°C
Dew
Point
°C
Rel
Hum
%
Delta-T
°C
Wind Press
QNH
hPa
Press
MSL
hPa
Rain since
9am
mm
Dir  Spd
km/h
Gust
km/h
Spd
kts
Gust
kts
22/11:30pm 12.2 8.6 8.4 77 1.9 SSE 17 20 9 11 - - 0.0
22/11:00pm 12.5 8.8 7.9 73 2.3 SSE 17 24 9 13 - - 0.0
22/10:30pm 12.5 9.2 7.9 73 2.3 SSE 15 20 8 11 - - 0.0
22/10:00pm 12.6 8.8 7.5 71 2.5 SSE 17 24 9 13 - - 0.0
22/09:30pm 12.6 8.4 7.5 71 2.5 SSE 19 28 10 15 - - 0.0
22/09:00pm 12.8 8.6 7.5 70 2.6 SSE 19 24 10 13 - - 0.0
22/08:30pm 12.8 8.4 7.5 70 2.6 SSE 20 30 11 16 - - 0.0
22/08:00pm 12.9 7.8 7.6 70 2.6 SSE 24 33 13 18 - - 0.0
22/07:30pm 13.4 8.3 7.8 69 2.8 SSE 24 32 13 17 - - 0.0
22/07:00pm 14.2 9.1 7.8 65 3.2 SSE 24 32 13 17 - - 0.0
22/06:30pm 14.6 8.8 7.8 63 3.4 SSE 28 35 15 19 - - 0.0
22/06:00pm 15.3 9.5 7.8 61 3.7 SSE 28 37 15 20 - - 0.0
22/05:30pm 16.9 10.4 8.1 56 4.5 SSE 32 43 17 23 - - 0.0
22/05:10pm 18.2 12.6 8.6 53 5.0 SSE 28 37 15 20 - - 0.0
22/05:00pm 18.9 16.3 7.6 48 5.8 S 11 19 6 10 - - 0.0
22/04:30pm 20.3 18.0 4.6 35 7.6 WSW 6 11 3 6 - - 0.0
22/04:00pm 20.0 16.8 5.2 38 7.3 N 11 17 6 9 - - 0.0
22/03:30pm 19.1 16.0 3.8 36 7.2 E 9 15 5 8 - - 0.0
22/03:00pm 19.1 16.2 4.4 38 7.0 S 9 13 5 7 - - 0.0
22/02:30pm 18.9 15.9 4.1 37 7.0 NNW 9 15 5 8 - - 0.0
22/02:00pm 18.4 15.2 3.3 36 7.0 ENE 9 15 5 8 - - 0.0
22/01:30pm 17.5 13.3 3.7 40 6.4 NNE 15 19 8 10 - - 0.0
22/01:00pm 18.1 15.0 5.5 43 6.1 NE 11 15 6 8 - - 0.0
22/12:30pm 18.0 15.3 5.6 44 6.0 W 9 13 5 7 - - 0.0
22/12:00pm 16.9 14.1 3.4 40 6.2 NE 7 13 4 7 - - 0.0
22/11:30am 16.3 14.0 5.0 47 5.4 E 6 9 3 5 - - 0.0
22/11:00am 15.9 13.3 6.3 53 4.7 N 9 11 5 6 - - 0.0
22/10:30am 15.2 13.3 7.4 59 3.9 NNW 7 11 4 6 - - 0.0
22/10:00am 14.3 12.4 7.5 63 3.4 N 7 11 4 6 - - 0.0
22/09:30am 12.9 11.0 6.9 67 2.9 N 6 9 3 5 - - 0.0
22/09:00am 11.9 11.3 7.4 74 2.2 CALM 0 6 0 3 - - 0.0
22/08:30am 10.0 9.3 6.8 80 1.5 CALM 0 0 0 0 - - 0.0
22/08:00am 9.0 8.1 6.2 82 1.3 CALM 0 0 0 0 - - 0.0
22/07:30am 8.4 7.3 6.9 90 0.7 NNE 2 6 1 3 - - 0.0
22/07:00am 7.6 5.5 6.7 94 0.4 SW 7 9 4 5 - - 0.0
22/06:30am 7.3 5.1 6.4 94 0.4 WSW 7 9 4 5 - - 0.0
22/06:00am 7.2 5.0 6.3 94 0.4 SW 7 9 4 5 - - 0.0
22/05:30am 7.4 6.2 6.5 94 0.4 WSW 2 9 1 5 - - 0.0
22/05:00am 7.3 6.5 6.4 94 0.4 CALM 0 0 0 0 - - 0.0
22/04:30am 7.8 5.4 6.9 94 0.4 WSW 9 11 5 6 - - 0.0
22/04:00am 8.4 6.1 7.3 93 0.5 NW 9 13 5 7 - - 0.0
22/03:30am 9.2 7.5 8.2 93 0.5 NNW 7 9 4 5 - - 0.0
22/03:00am 10.1 9.9 8.9 92 0.6 CALM 0 0 0 0 - - 0.0
22/02:30am 10.5 9.0 9.1 91 0.7 SW 7 9 4 5 - - 0.0
22/02:00am 10.5 10.3 9.1 91 0.7 CALM 0 0 0 0 - - 0.0
22/01:30am 10.7 10.6 9.3 91 0.7 CALM 0 0 0 0 - - 0.0
22/01:00am 10.8 9.3 9.2 90 0.8 SSW 7 9 4 5 - - 0.0
22/12:30am 11.2 9.9 9.2 87 1.0 SSE 6 7 3 4 - - 0.0
22/12:00am 12.0 10.8 9.5 85 1.3 E 6 13 3 7 - - 0.0
 
Date/Time
EDT
Temp
°C
App
Temp
°C
Dew
Point
°C
Rel
Hum
%
Delta-T
°C
Wind Press
QNH
hPa
Press
MSL
hPa
Rain since
9am
mm
Dir  Spd
km/h
Gust
km/h
Spd
kts
Gust
kts
21/11:30pm 12.2 10.0 9.3 82 1.5 SE 11 15 6 8 - - 0.0
21/11:00pm 12.6 10.7 9.1 79 1.8 E 9 13 5 7 - - 0.0
21/10:30pm 12.8 10.1 9.1 78 1.9 SSW 13 19 7 10 - - 0.0
21/10:00pm 13.1 10.9 9.2 77 2.0 SSW 11 15 6 8 - - 0.0
21/09:30pm 13.6 10.6 7.8 68 2.9 SSW 13 22 7 12 - - 0.0
21/09:00pm 13.7 10.4 7.9 68 2.9 SSW 15 20 8 11 - - 0.0
21/08:30pm 13.9 11.5 7.2 64 3.3 SSW 9 13 5 7 - - 0.0
21/08:00pm 13.7 10.6 7.4 65 3.1 SW 13 20 7 11 - - 0.0
21/07:30pm 14.0 9.1 6.9 62 3.4 SW 22 35 12 19 - - 0.0
21/07:00pm 14.9 10.7 7.3 60 3.7 SW 19 26 10 14 - - 0.0
21/06:30pm 15.4 11.0 7.2 58 4.0 SW 20 28 11 15 - - 0.0
21/06:00pm 16.4 12.9 7.2 54 4.6 SSW 15 20 8 11 - - 0.0
21/05:30pm 17.2 13.5 8.0 54 4.7 SW 17 22 9 12 - - 0.0
21/05:00pm 17.5 15.6 6.7 49 5.4 WNW 6 9 3 5 - - 0.0
21/04:30pm 17.8 15.5 5.8 45 5.9 NNE 7 11 4 6 - - 0.0
21/04:00pm 17.3 13.9 5.7 46 5.6 N 13 15 7 8 - - 0.0
21/03:30pm 17.7 13.8 5.4 44 6.0 N 15 19 8 10 - - 0.0
21/03:00pm 17.8 14.3 5.6 44 5.9 N 13 17 7 9 - - 0.0
21/02:30pm 17.3 15.3 6.4 48 5.4 NNE 6 13 3 7 - - 0.0
21/02:00pm 17.8 14.0 5.8 45 5.9 N 15 20 8 11 - - 0.0
21/01:30pm 18.5 15.2 6.6 45 5.9 N 13 19 7 10 - - 0.0
21/01:00pm 17.3 13.6 6.4 48 5.4 N 15 20 8 11 - - 0.0
21/12:30pm 16.3 12.5 5.6 49 5.1 NW 15 19 8 10 - - 0.0
21/12:00pm 16.3 12.8 5.6 49 5.1 NW 13 17 7 9 - - 0.0
21/11:30am 15.9 11.2 5.3 49 5.1 N 19 24 10 13 - - 0.0
21/11:00am 16.1 12.7 6.1 51 4.9 NNW 13 22 7 12 - - 0.0
21/10:30am 15.1 11.8 6.5 56 4.2 N 13 20 7 11 - - 0.0
21/10:00am 14.2 10.9 6.6 60 3.7 NNW 13 20 7 11 - - 0.0
21/09:30am 13.7 10.2 7.0 64 3.3 N 15 17 8 9 - - 0.0
21/09:00am 12.6 10.0 5.9 63 3.2 NNE 9 11 5 6 - - 0.0
21/08:30am 11.6 9.5 6.6 71 2.4 N 7 9 4 5 - - 0.0
21/08:00am 10.4 8.5 6.6 77 1.8 NW 6 11 3 6 - - 0.0
21/07:30am 9.3 7.2 6.5 83 1.3 NW 7 11 4 6 - - 0.0
21/07:00am 8.9 7.3 6.5 85 1.1 NNW 4 7 2 4 - - 0.0
21/06:30am 8.6 6.0 6.2 85 1.1 WSW 9 9 5 5 - - 0.0
21/06:00am 8.7 7.8 6.1 84 1.2 CALM 0 9 0 5 - - 0.0
21/05:30am 8.8 7.7 6.7 87 1.0 N 2 7 1 4 - - 0.0
21/05:00am 9.3 6.4 6.3 81 1.4 NNW 11 11 6 6 - - 0.0
21/04:30am 10.0 7.4 6.2 77 1.8 NNW 9 11 5 6 - - 0.0
21/04:00am 10.6 7.6 5.9 73 2.2 WNW 11 15 6 8 - - 0.0
21/03:30am 10.6 9.4 6.4 75 2.0 WNW 2 9 1 5 - - 0.0
21/03:00am 11.1 9.0 6.5 73 2.2 W 7 13 4 7 - - 0.0
21/02:30am 11.5 8.4 5.5 66 2.8 WSW 11 15 6 8 - - 0.0
21/02:00am 11.3 8.0 6.2 71 2.4 SW 13 19 7 10 - - 0.0
21/01:30am 10.6 8.1 6.6 76 1.9 WSW 9 15 5 8 - - 0.0
21/01:00am 10.8 9.8 7.5 80 1.6 WSW 2 9 1 5 - - 0.0
21/12:30am 11.6 9.4 7.9 78 1.8 WSW 9 15 5 8 - - 0.0
21/12:00am 12.1 10.3 8.1 76 2.0 WSW 7 11 4 6 - - 0.0
 
Date/Time
EDT
Temp
°C
App
Temp
°C
Dew
Point
°C
Rel
Hum
%
Delta-T
°C
Wind Press
QNH
hPa
Press
MSL
hPa
Rain since
9am
mm
Dir  Spd
km/h
Gust
km/h
Spd
kts
Gust
kts
20/11:30pm 12.3 11.9 8.3 76 2.0 CALM 0 0 0 0 - - 0.0
20/11:00pm 12.1 11.0 8.5 78 1.8 SSW 4 9 2 5 - - 0.0
20/10:30pm 12.2 9.7 8.4 77 1.9 SSW 11 15 6 8 - - 0.0
20/10:00pm 12.2 10.6 8.6 78 1.8 S 7 13 4 7 - - 0.0
20/09:30pm 12.0 10.0 8.8 81 1.6 S 9 13 5 7 - - 0.0
20/09:00pm 12.1 8.3 7.6 74 2.2 SSW 17 28 9 15 - - 0.0
20/08:30pm 13.0 10.5 8.0 71 2.5 S 11 15 6 8 - - 0.0
20/08:00pm 14.1 11.1 7.7 65 3.2 S 13 19 7 10 - - 0.0
20/07:30pm 14.8 11.5 6.6 58 4.0 SSE 13 19 7 10 - - 0.0

Latest Capital City Observations: Canberra | Sydney | Melbourne | Brisbane | Adelaide | Perth | Hobart | Darwin

Other formats

Comma delimited format used in spreadsheet applications
http://www.bom.gov.au/fwo/IDT60901/IDT60901.94964.axf

JavaScript Object Notation format (JSON) in row-major order
http://www.bom.gov.au/fwo/IDT60901/IDT60901.94964.json

Data quality

Most of these data are generated automatically and are frequently updated. Quality checks on data are not normally performed. It is possible for incorrect values to appear. Refer to information at About Latest Weather Observations and please check the disclaimer before using these data.